sensor_id;sensor_type;location;lat;lon;timestamp;pressure;altitude;pressure_sealevel;temperature;humidity
17615;BME280;8926;49.720;6.576;2023-02-10T00:01:38;101735.03;;;-0.16;67.93
17615;BME280;8926;49.720;6.576;2023-02-10T00:04:04;101729.81;;;-0.19;67.35
17615;BME280;8926;49.720;6.576;2023-02-10T00:06:29;101727.19;;;-0.22;68.50
17615;BME280;8926;49.720;6.576;2023-02-10T00:08:57;101730.50;;;-0.29;68.49
17615;BME280;8926;49.720;6.576;2023-02-10T00:11:23;101741.59;;;-0.30;68.53
17615;BME280;8926;49.720;6.576;2023-02-10T00:14:10;101729.59;;;-0.31;67.55
17615;BME280;8926;49.720;6.576;2023-02-10T00:16:36;101729.59;;;-0.31;67.71
17615;BME280;8926;49.720;6.576;2023-02-10T00:19:01;101726.94;;;-0.36;68.44
17615;BME280;8926;49.720;6.576;2023-02-10T00:21:27;101735.44;;;-0.38;69.83
17615;BME280;8926;49.720;6.576;2023-02-10T00:23:52;101731.03;;;-0.44;70.07
17615;BME280;8926;49.720;6.576;2023-02-10T00:26:17;101737.81;;;-0.47;69.64
17615;BME280;8926;49.720;6.576;2023-02-10T00:28:43;101741.34;;;-0.42;67.51
17615;BME280;8926;49.720;6.576;2023-02-10T00:31:12;101742.94;;;-0.47;68.48
17615;BME280;8926;49.720;6.576;2023-02-10T00:33:38;101745.47;;;-0.49;69.70
17615;BME280;8926;49.720;6.576;2023-02-10T00:36:05;101748.91;;;-0.48;69.95
17615;BME280;8926;49.720;6.576;2023-02-10T00:38:30;101742.88;;;-0.50;69.53
17615;BME280;8926;49.720;6.576;2023-02-10T00:40:55;101749.88;;;-0.43;69.75
17615;BME280;8926;49.720;6.576;2023-02-10T00:43:26;101761.06;;;-0.41;69.65
17615;BME280;8926;49.720;6.576;2023-02-10T00:45:51;101747.41;;;-0.39;68.64
17615;BME280;8926;49.720;6.576;2023-02-10T00:48:16;101755.16;;;-0.37;69.79
17615;BME280;8926;49.720;6.576;2023-02-10T00:50:41;101757.72;;;-0.37;68.72
17615;BME280;8926;49.720;6.576;2023-02-10T00:53:07;101755.88;;;-0.43;70.26
17615;BME280;8926;49.720;6.576;2023-02-10T00:55:32;101760.09;;;-0.46;70.28
17615;BME280;8926;49.720;6.576;2023-02-10T00:57:57;101760.16;;;-0.43;69.58
17615;BME280;8926;49.720;6.576;2023-02-10T01:00:22;101766.97;;;-0.45;69.11
17615;BME280;8926;49.720;6.576;2023-02-10T01:02:48;101773.81;;;-0.44;68.81
17615;BME280;8926;49.720;6.576;2023-02-10T01:05:13;101763.50;;;-0.47;70.03
17615;BME280;8926;49.720;6.576;2023-02-10T01:07:38;101764.31;;;-0.48;71.17
17615;BME280;8926;49.720;6.576;2023-02-10T01:10:04;101765.16;;;-0.49;71.54
17615;BME280;8926;49.720;6.576;2023-02-10T01:12:29;101769.50;;;-0.47;71.35
17615;BME280;8926;49.720;6.576;2023-02-10T01:14:55;101771.25;;;-0.44;71.38
17615;BME280;8926;49.720;6.576;2023-02-10T01:17:20;101772.28;;;-0.36;69.77
17615;BME280;8926;49.720;6.576;2023-02-10T01:19:45;101774.16;;;-0.29;70.27
17615;BME280;8926;49.720;6.576;2023-02-10T01:22:12;101775.97;;;-0.22;69.87
17615;BME280;8926;49.720;6.576;2023-02-10T01:24:38;101784.53;;;-0.23;70.58
17615;BME280;8926;49.720;6.576;2023-02-10T01:27:03;101787.09;;;-0.23;71.83
17615;BME280;8926;49.720;6.576;2023-02-10T01:29:28;101797.47;;;-0.18;71.54
17615;BME280;8926;49.720;6.576;2023-02-10T01:31:53;101798.47;;;-0.12;71.19
17615;BME280;8926;49.720;6.576;2023-02-10T01:34:19;101798.59;;;-0.06;69.45
17615;BME280;8926;49.720;6.576;2023-02-10T01:36:44;101798.53;;;-0.09;69.95
17615;BME280;8926;49.720;6.576;2023-02-10T01:39:09;101790.78;;;-0.10;70.02
17615;BME280;8926;49.720;6.576;2023-02-10T01:41:35;101789.19;;;-0.05;69.50
17615;BME280;8926;49.720;6.576;2023-02-10T01:46:51;101797.81;;;-0.02;69.05
17615;BME280;8926;49.720;6.576;2023-02-10T01:49:23;101805.53;;;-0.02;69.44
17615;BME280;8926;49.720;6.576;2023-02-10T01:52:12;101800.53;;;0.08;69.46
17615;BME280;8926;49.720;6.576;2023-02-10T01:54:47;101798.81;;;0.07;69.87
17615;BME280;8926;49.720;6.576;2023-02-10T01:57:15;101788.59;;;0.10;69.68
17615;BME280;8926;49.720;6.576;2023-02-10T01:59:42;101792.09;;;0.13;70.11
17615;BME280;8926;49.720;6.576;2023-02-10T02:02:08;101795.53;;;0.14;70.84
17615;BME280;8926;49.720;6.576;2023-02-10T02:04:40;101796.41;;;0.16;71.11
17615;BME280;8926;49.720;6.576;2023-02-10T02:07:07;101796.56;;;0.23;70.16
17615;BME280;8926;49.720;6.576;2023-02-10T02:09:33;101802.66;;;0.30;69.55
17615;BME280;8926;49.720;6.576;2023-02-10T02:12:16;101789.03;;;0.34;68.74
17615;BME280;8926;49.720;6.576;2023-02-10T02:15:01;101793.22;;;0.29;69.61
17615;BME280;8926;49.720;6.576;2023-02-10T02:17:48;101800.97;;;0.32;70.28
17615;BME280;8926;49.720;6.576;2023-02-10T02:31:56;101794.03;;;0.25;71.01
17615;BME280;8926;49.720;6.576;2023-02-10T02:34:42;101800.94;;;0.29;70.20
17615;BME280;8926;49.720;6.576;2023-02-10T02:37:19;101795.84;;;0.32;70.83
17615;BME280;8926;49.720;6.576;2023-02-10T02:39:51;101791.63;;;0.36;71.31
17615;BME280;8926;49.720;6.576;2023-02-10T02:42:28;101790.81;;;0.38;70.52
17615;BME280;8926;49.720;6.576;2023-02-10T02:45:01;101790.94;;;0.44;71.17
17615;BME280;8926;49.720;6.576;2023-02-10T02:47:38;101796.91;;;0.43;71.34
17615;BME280;8926;49.720;6.576;2023-02-10T02:50:22;101793.38;;;0.38;71.98
17615;BME280;8926;49.720;6.576;2023-02-10T02:53:42;101800.28;;;0.41;70.36
17615;BME280;8926;49.720;6.576;2023-02-10T02:56:01;101790.84;;;0.40;71.56
17615;BME280;8926;49.720;6.576;2023-02-10T03:01:11;101799.50;;;0.43;70.62
17615;BME280;8926;49.720;6.576;2023-02-10T03:03:38;101802.78;;;0.36;70.50
17615;BME280;8926;49.720;6.576;2023-02-10T03:06:04;101799.31;;;0.34;70.54
17615;BME280;8926;49.720;6.576;2023-02-10T03:08:31;101802.72;;;0.33;69.99
17615;BME280;8926;49.720;6.576;2023-02-10T03:10:58;101801.88;;;0.34;72.81
17615;BME280;8926;49.720;6.576;2023-02-10T03:13:23;101806.34;;;0.43;70.54
17615;BME280;8926;49.720;6.576;2023-02-10T03:15:48;101811.50;;;0.44;71.91
17615;BME280;8926;49.720;6.576;2023-02-10T03:18:14;101808.09;;;0.45;71.58
17615;BME280;8926;49.720;6.576;2023-02-10T03:20:40;101805.59;;;0.48;70.51
17615;BME280;8926;49.720;6.576;2023-02-10T03:23:05;101804.78;;;0.52;70.02
17615;BME280;8926;49.720;6.576;2023-02-10T03:25:30;101803.00;;;0.48;69.53
17615;BME280;8926;49.720;6.576;2023-02-10T03:27:57;101798.72;;;0.49;70.10
17615;BME280;8926;49.720;6.576;2023-02-10T03:30:22;101810.66;;;0.45;70.60
17615;BME280;8926;49.720;6.576;2023-02-10T03:32:47;101810.72;;;0.48;70.27
17615;BME280;8926;49.720;6.576;2023-02-10T03:35:14;101821.84;;;0.47;71.76
17615;BME280;8926;49.720;6.576;2023-02-10T03:37:39;101821.84;;;0.47;73.19
17615;BME280;8926;49.720;6.576;2023-02-10T03:40:05;101813.25;;;0.47;74.22
17615;BME280;8926;49.720;6.576;2023-02-10T03:42:30;101818.41;;;0.47;72.61
17615;BME280;8926;49.720;6.576;2023-02-10T03:44:55;101816.69;;;0.47;71.38
17615;BME280;8926;49.720;6.576;2023-02-10T03:47:20;101830.44;;;0.49;72.39
17615;BME280;8926;49.720;6.576;2023-02-10T03:49:46;101820.31;;;0.58;72.22
17615;BME280;8926;49.720;6.576;2023-02-10T03:52:11;101823.84;;;0.63;72.51
17615;BME280;8926;49.720;6.576;2023-02-10T03:54:36;101831.63;;;0.68;71.85
17615;BME280;8926;49.720;6.576;2023-02-10T03:57:02;101823.94;;;0.70;71.36
17615;BME280;8926;49.720;6.576;2023-02-10T03:59:27;101833.34;;;0.67;72.35
17615;BME280;8926;49.720;6.576;2023-02-10T04:01:52;101835.91;;;0.67;71.77
17615;BME280;8926;49.720;6.576;2023-02-10T04:04:18;101842.78;;;0.68;72.50
17615;BME280;8926;49.720;6.576;2023-02-10T04:06:43;101840.25;;;0.70;70.80
17615;BME280;8926;49.720;6.576;2023-02-10T04:09:08;101837.69;;;0.72;70.96
17615;BME280;8926;49.720;6.576;2023-02-10T04:11:33;101844.63;;;0.76;71.28
17615;BME280;8926;49.720;6.576;2023-02-10T04:13:59;101837.81;;;0.81;71.28
17615;BME280;8926;49.720;6.576;2023-02-10T04:16:24;101849.78;;;0.79;72.27
17615;BME280;8926;49.720;6.576;2023-02-10T04:18:53;101846.50;;;0.86;70.06
17615;BME280;8926;49.720;6.576;2023-02-10T04:21:19;101854.94;;;0.79;69.71
17615;BME280;8926;49.720;6.576;2023-02-10T04:23:45;101853.25;;;0.78;71.72
17615;BME280;8926;49.720;6.576;2023-02-10T04:26:10;101853.25;;;0.78;71.16
17615;BME280;8926;49.720;6.576;2023-02-10T04:28:35;101858.34;;;0.75;71.95
17615;BME280;8926;49.720;6.576;2023-02-10T04:31:00;101852.38;;;0.77;72.74
17615;BME280;8926;49.720;6.576;2023-02-10T04:33:26;101851.59;;;0.83;72.56
17615;BME280;8926;49.720;6.576;2023-02-10T04:35:53;101858.47;;;0.84;71.68
17615;BME280;8926;49.720;6.576;2023-02-10T04:38:19;101856.66;;;0.77;72.14
17615;BME280;8926;49.720;6.576;2023-02-10T04:40:45;101861.78;;;0.77;72.79
17615;BME280;8926;49.720;6.576;2023-02-10T04:43:11;101860.97;;;0.78;72.11
17615;BME280;8926;49.720;6.576;2023-02-10T04:45:37;101863.56;;;0.81;72.46
17615;BME280;8926;49.720;6.576;2023-02-10T04:48:03;101863.53;;;0.78;71.82
17615;BME280;8926;49.720;6.576;2023-02-10T04:50:28;101860.09;;;0.79;72.15
17615;BME280;8926;49.720;6.576;2023-02-10T04:52:53;101863.56;;;0.81;72.08
17615;BME280;8926;49.720;6.576;2023-02-10T04:55:19;101870.44;;;0.82;72.66
17615;BME280;8926;49.720;6.576;2023-02-10T04:57:44;101876.53;;;0.87;72.76
17615;BME280;8926;49.720;6.576;2023-02-10T05:00:10;101870.59;;;0.91;73.39
17615;BME280;8926;49.720;6.576;2023-02-10T05:02:36;101865.44;;;0.91;71.83
17615;BME280;8926;49.720;6.576;2023-02-10T05:05:01;101866.34;;;0.93;72.38
17615;BME280;8926;49.720;6.576;2023-02-10T05:07:26;101870.75;;;1.00;71.39
17615;BME280;8926;49.720;6.576;2023-02-10T05:09:52;101863.81;;;0.96;70.75
17615;BME280;8926;49.720;6.576;2023-02-10T05:12:17;101865.41;;;0.88;71.55
17615;BME280;8926;49.720;6.576;2023-02-10T05:14:42;101869.69;;;0.87;72.07
17615;BME280;8926;49.720;6.576;2023-02-10T05:17:08;101864.50;;;0.86;72.76
17615;BME280;8926;49.720;6.576;2023-02-10T05:19:33;101859.28;;;0.81;75.22
17615;BME280;8926;49.720;6.576;2023-02-10T05:21:58;101858.41;;;0.81;74.82
17615;BME280;8926;49.720;6.576;2023-02-10T05:24:24;101858.53;;;0.87;75.04
17615;BME280;8926;49.720;6.576;2023-02-10T05:26:49;101855.16;;;0.91;74.81
17615;BME280;8926;49.720;6.576;2023-02-10T05:29:14;101855.25;;;0.95;74.02
17615;BME280;8926;49.720;6.576;2023-02-10T05:31:41;101859.59;;;0.99;74.30
17615;BME280;8926;49.720;6.576;2023-02-10T05:34:06;101853.66;;;1.05;73.92
17615;BME280;8926;49.720;6.576;2023-02-10T05:36:31;101855.44;;;1.09;73.69
17615;BME280;8926;49.720;6.576;2023-02-10T05:38:57;101864.13;;;1.14;75.25
17615;BME280;8926;49.720;6.576;2023-02-10T05:41:41;101860.91;;;1.30;74.17
17615;BME280;8926;49.720;6.576;2023-02-10T05:44:06;101854.03;;;1.26;73.10
17615;BME280;8926;49.720;6.576;2023-02-10T05:46:31;101852.25;;;1.22;73.17
17615;BME280;8926;49.720;6.576;2023-02-10T05:48:56;101847.03;;;1.19;73.24
17615;BME280;8926;49.720;6.576;2023-02-10T05:51:22;101850.50;;;1.21;73.47
17615;BME280;8926;49.720;6.576;2023-02-10T05:53:47;101857.44;;;1.25;72.93
17615;BME280;8926;49.720;6.576;2023-02-10T05:56:12;101863.41;;;1.23;73.32
17615;BME280;8926;49.720;6.576;2023-02-10T05:58:38;101864.28;;;1.23;73.73
17615;BME280;8926;49.720;6.576;2023-02-10T06:01:08;101868.56;;;1.23;73.60
17615;BME280;8926;49.720;6.576;2023-02-10T06:03:33;101856.56;;;1.25;73.81
17615;BME280;8926;49.720;6.576;2023-02-10T06:05:59;101862.63;;;1.28;73.02
17615;BME280;8926;49.720;6.576;2023-02-10T06:08:24;101847.22;;;1.31;72.64
17615;BME280;8926;49.720;6.576;2023-02-10T06:10:50;101867.84;;;1.34;71.17
17615;BME280;8926;49.720;6.576;2023-02-10T06:13:15;101857.50;;;1.31;71.66
17615;BME280;8926;49.720;6.576;2023-02-10T06:15:41;101858.41;;;1.33;72.27
17615;BME280;8926;49.720;6.576;2023-02-10T06:18:06;101854.13;;;1.35;72.45
17615;BME280;8926;49.720;6.576;2023-02-10T06:20:31;101867.06;;;1.39;72.51
17615;BME280;8926;49.720;6.576;2023-02-10T06:22:57;101867.03;;;1.37;72.58
17615;BME280;8926;49.720;6.576;2023-02-10T06:25:22;101860.09;;;1.33;72.74
17615;BME280;8926;49.720;6.576;2023-02-10T06:27:47;101871.28;;;1.33;72.18
17615;BME280;8926;49.720;6.576;2023-02-10T06:30:13;101872.16;;;1.35;71.88
17615;BME280;8926;49.720;6.576;2023-02-10T06:32:38;101872.97;;;1.30;71.93
17615;BME280;8926;49.720;6.576;2023-02-10T06:35:03;101872.09;;;1.29;72.80
17615;BME280;8926;49.720;6.576;2023-02-10T06:37:29;101885.81;;;1.28;71.95
17615;BME280;8926;49.720;6.576;2023-02-10T06:39:55;101883.19;;;1.25;72.26
17615;BME280;8926;49.720;6.576;2023-02-10T06:42:20;101883.25;;;1.31;72.62
17615;BME280;8926;49.720;6.576;2023-02-10T06:44:46;101880.69;;;1.33;73.89
17615;BME280;8926;49.720;6.576;2023-02-10T06:47:11;101874.69;;;1.32;72.58
17615;BME280;8926;49.720;6.576;2023-02-10T06:49:36;101882.31;;;1.25;73.33
17615;BME280;8926;49.720;6.576;2023-02-10T06:52:02;101883.16;;;1.24;73.59
17615;BME280;8926;49.720;6.576;2023-02-10T06:54:28;101886.59;;;1.24;73.65
17615;BME280;8926;49.720;6.576;2023-02-10T06:56:53;101888.28;;;1.22;73.03
17615;BME280;8926;49.720;6.576;2023-02-10T06:59:18;101895.09;;;1.19;73.72
17615;BME280;8926;49.720;6.576;2023-02-10T07:01:44;101901.94;;;1.18;73.38
17615;BME280;8926;49.720;6.576;2023-02-10T07:04:10;101910.50;;;1.17;74.36
17615;BME280;8926;49.720;6.576;2023-02-10T07:06:35;101909.75;;;1.23;74.65
17615;BME280;8926;49.720;6.576;2023-02-10T07:09:01;101915.84;;;1.31;74.21
17615;BME280;8926;49.720;6.576;2023-02-10T07:11:29;101902.16;;;1.33;73.80
17615;BME280;8926;49.720;6.576;2023-02-10T07:13:54;101907.41;;;1.38;74.26
17615;BME280;8926;49.720;6.576;2023-02-10T07:16:19;101906.63;;;1.44;72.63
17615;BME280;8926;49.720;6.576;2023-02-10T07:18:45;101915.28;;;1.47;72.17
17615;BME280;8926;49.720;6.576;2023-02-10T07:21:10;101910.16;;;1.49;73.00
17615;BME280;8926;49.720;6.576;2023-02-10T07:23:35;101913.63;;;1.52;72.60
17615;BME280;8926;49.720;6.576;2023-02-10T07:26:01;101919.72;;;1.56;73.96
17615;BME280;8926;49.720;6.576;2023-02-10T07:28:26;101923.25;;;1.64;73.52
17615;BME280;8926;49.720;6.576;2023-02-10T07:30:51;101930.16;;;1.68;73.64
17615;BME280;8926;49.720;6.576;2023-02-10T07:33:17;101933.63;;;1.70;73.51
17615;BME280;8926;49.720;6.576;2023-02-10T07:35:43;101938.84;;;1.73;72.48
17615;BME280;8926;49.720;6.576;2023-02-10T07:38:08;101937.97;;;1.73;72.69
17615;BME280;8926;49.720;6.576;2023-02-10T07:40:33;101942.25;;;1.72;73.85
17615;BME280;8926;49.720;6.576;2023-02-10T07:42:59;101943.06;;;1.69;74.05
17615;BME280;8926;49.720;6.576;2023-02-10T07:45:24;101948.22;;;1.69;72.41
17615;BME280;8926;49.720;6.576;2023-02-10T07:47:51;101952.50;;;1.67;73.39
17615;BME280;8926;49.720;6.576;2023-02-10T07:50:17;101949.09;;;1.70;72.18
17615;BME280;8926;49.720;6.576;2023-02-10T07:52:42;101946.56;;;1.73;73.08
17615;BME280;8926;49.720;6.576;2023-02-10T07:55:09;101935.47;;;1.77;71.90
17615;BME280;8926;49.720;6.576;2023-02-10T07:57:34;101944.00;;;1.73;72.22
17615;BME280;8926;49.720;6.576;2023-02-10T08:00:00;101938.84;;;1.73;71.98
17615;BME280;8926;49.720;6.576;2023-02-10T08:02:25;101952.56;;;1.72;72.08
17615;BME280;8926;49.720;6.576;2023-02-10T08:04:50;101950.84;;;1.71;73.02
17615;BME280;8926;49.720;6.576;2023-02-10T08:07:19;101950.00;;;1.74;74.29
17615;BME280;8926;49.720;6.576;2023-02-10T08:09:44;101950.94;;;1.77;73.00
17615;BME280;8926;49.720;6.576;2023-02-10T08:12:10;101956.13;;;1.80;72.49
17615;BME280;8926;49.720;6.576;2023-02-10T08:14:35;101957.88;;;1.81;73.36
17615;BME280;8926;49.720;6.576;2023-02-10T08:17:00;101956.25;;;1.89;73.76
17615;BME280;8926;49.720;6.576;2023-02-10T08:19:26;101959.75;;;1.94;73.40
17615;BME280;8926;49.720;6.576;2023-02-10T08:21:51;101954.69;;;2.00;73.12
17615;BME280;8926;49.720;6.576;2023-02-10T08:24:16;101958.22;;;2.09;71.90
17615;BME280;8926;49.720;6.576;2023-02-10T08:26:41;101966.81;;;2.09;72.60
17615;BME280;8926;49.720;6.576;2023-02-10T08:29:07;101963.41;;;2.12;72.34
17615;BME280;8926;49.720;6.576;2023-02-10T08:31:32;101959.19;;;2.17;72.94
17615;BME280;8926;49.720;6.576;2023-02-10T08:33:58;101960.13;;;2.22;72.97
17615;BME280;8926;49.720;6.576;2023-02-10T08:36:23;101967.06;;;2.26;72.62
17615;BME280;8926;49.720;6.576;2023-02-10T08:38:49;101959.34;;;2.27;73.20
17615;BME280;8926;49.720;6.576;2023-02-10T08:41:16;101955.06;;;2.28;73.21
17615;BME280;8926;49.720;6.576;2023-02-10T08:43:41;101961.19;;;2.37;71.45
17615;BME280;8926;49.720;6.576;2023-02-10T08:46:07;101963.81;;;2.42;72.09
17615;BME280;8926;49.720;6.576;2023-02-10T08:48:32;101957.09;;;2.53;72.73
17615;BME280;8926;49.720;6.576;2023-02-10T08:50:58;101957.16;;;2.61;70.76
17615;BME280;8926;49.720;6.576;2023-02-10T08:53:24;101946.84;;;2.62;70.88
17615;BME280;8926;49.720;6.576;2023-02-10T08:56:04;101942.56;;;2.63;70.40
17615;BME280;8926;49.720;6.576;2023-02-10T08:58:30;101951.25;;;2.71;70.07
17615;BME280;8926;49.720;6.576;2023-02-10T09:00:55;101944.38;;;2.71;70.27
17615;BME280;8926;49.720;6.576;2023-02-10T09:03:21;101947.88;;;2.75;70.13
17615;BME280;8926;49.720;6.576;2023-02-10T09:05:46;101950.53;;;2.83;69.69
17615;BME280;8926;49.720;6.576;2023-02-10T09:08:14;101954.00;;;2.88;69.83
17615;BME280;8926;49.720;6.576;2023-02-10T09:10:40;101951.44;;;2.91;70.02
17615;BME280;8926;49.720;6.576;2023-02-10T09:13:05;101954.09;;;2.97;69.00
17615;BME280;8926;49.720;6.576;2023-02-10T09:15:33;101952.41;;;2.99;68.84
17615;BME280;8926;49.720;6.576;2023-02-10T09:17:59;101965.41;;;3.06;68.64
17615;BME280;8926;49.720;6.576;2023-02-10T09:20:24;101962.84;;;3.08;68.95
17615;BME280;8926;49.720;6.576;2023-02-10T09:22:49;101961.06;;;3.04;69.13
17615;BME280;8926;49.720;6.576;2023-02-10T09:25:15;101974.81;;;3.03;69.58
17615;BME280;8926;49.720;6.576;2023-02-10T09:27:42;101980.06;;;3.09;69.67
17615;BME280;8926;49.720;6.576;2023-02-10T09:30:07;101971.53;;;3.19;69.09
17615;BME280;8926;49.720;6.576;2023-02-10T09:32:33;101961.19;;;3.19;69.15
17615;BME280;8926;49.720;6.576;2023-02-10T09:34:58;101959.50;;;3.21;69.10
17615;BME280;8926;49.720;6.576;2023-02-10T09:37:23;101960.31;;;3.17;69.36
17615;BME280;8926;49.720;6.576;2023-02-10T09:39:49;101969.78;;;3.18;69.79
17615;BME280;8926;49.720;6.576;2023-02-10T09:43:19;101964.66;;;3.21;69.22
17615;BME280;8926;49.720;6.576;2023-02-10T09:45:26;101967.25;;;3.23;70.32
17615;BME280;8926;49.720;6.576;2023-02-10T09:51:04;101974.16;;;3.22;69.75
17615;BME280;8926;49.720;6.576;2023-02-10T09:53:36;101973.28;;;3.23;70.74
17615;BME280;8926;49.720;6.576;2023-02-10T09:56:05;101973.31;;;3.26;70.16
17615;BME280;8926;49.720;6.576;2023-02-10T09:58:48;101974.25;;;3.33;68.79
17615;BME280;8926;49.720;6.576;2023-02-10T10:01:21;101976.81;;;3.31;68.82
17615;BME280;8926;49.720;6.576;2023-02-10T10:03:59;101987.13;;;3.28;69.66
17615;BME280;8926;49.720;6.576;2023-02-10T10:06:54;101986.28;;;3.31;68.72
17615;BME280;8926;49.720;6.576;2023-02-10T10:09:30;101993.13;;;3.26;69.90
17615;BME280;8926;49.720;6.576;2023-02-10T10:11:58;101983.63;;;3.23;70.81
17615;BME280;8926;49.720;6.576;2023-02-10T10:14:27;101984.59;;;3.34;69.40
17615;BME280;8926;49.720;6.576;2023-02-10T10:19:59;101965.69;;;3.40;69.71
17615;BME280;8926;49.720;6.576;2023-02-10T10:28:18;101966.63;;;3.50;68.75
17615;BME280;8926;49.720;6.576;2023-02-10T10:30:49;101972.69;;;3.55;68.80
17615;BME280;8926;49.720;6.576;2023-02-10T10:36:15;101971.91;;;3.65;69.02
17615;BME280;8926;49.720;6.576;2023-02-10T10:38:50;101973.69;;;3.72;69.23
17615;BME280;8926;49.720;6.576;2023-02-10T10:41:16;101967.72;;;3.82;69.46
17615;BME280;8926;49.720;6.576;2023-02-10T10:43:49;101979.84;;;3.94;69.35
17615;BME280;8926;49.720;6.576;2023-02-10T10:46:28;101988.56;;;4.05;68.89
17615;BME280;8926;49.720;6.576;2023-02-10T10:48:55;101986.03;;;4.16;69.05
17615;BME280;8926;49.720;6.576;2023-02-10T10:51:21;101980.88;;;4.22;67.80
17615;BME280;8926;49.720;6.576;2023-02-10T10:53:49;101984.31;;;4.21;68.26
17615;BME280;8926;49.720;6.576;2023-02-10T10:56:35;101980.91;;;4.25;67.54
17615;BME280;8926;49.720;6.576;2023-02-10T10:59:12;101980.00;;;4.18;67.29
17615;BME280;8926;49.720;6.576;2023-02-10T11:01:41;101975.69;;;4.13;67.67
17615;BME280;8926;49.720;6.576;2023-02-10T11:06:36;101982.56;;;4.17;67.92
17615;BME280;8926;49.720;6.576;2023-02-10T11:09:04;101982.63;;;4.26;68.58
17615;BME280;8926;49.720;6.576;2023-02-10T11:11:41;101986.13;;;4.34;68.19
17615;BME280;8926;49.720;6.576;2023-02-10T11:14:14;101989.63;;;4.45;68.02
17615;BME280;8926;49.720;6.576;2023-02-10T11:16:43;101981.00;;;4.49;67.59
17615;BME280;8926;49.720;6.576;2023-02-10T11:19:18;101973.25;;;4.51;67.97
17615;BME280;8926;49.720;6.576;2023-02-10T11:21:43;101967.19;;;4.44;68.54
17615;BME280;8926;49.720;6.576;2023-02-10T11:24:27;101964.59;;;4.39;68.31
17615;BME280;8926;49.720;6.576;2023-02-10T11:27:01;101954.25;;;4.39;67.79
17615;BME280;8926;49.720;6.576;2023-02-10T11:29:30;101949.94;;;4.43;68.38
17615;BME280;8926;49.720;6.576;2023-02-10T11:31:57;101955.13;;;4.49;68.99
17615;BME280;8926;49.720;6.576;2023-02-10T11:34:39;101960.38;;;4.61;69.09
17615;BME280;8926;49.720;6.576;2023-02-10T11:37:17;101962.97;;;4.70;69.13
17615;BME280;8926;49.720;6.576;2023-02-10T11:39:45;101960.41;;;4.83;68.78
17615;BME280;8926;49.720;6.576;2023-02-10T11:42:17;101947.50;;;4.90;68.34
17615;BME280;8926;49.720;6.576;2023-02-10T11:44:56;101946.63;;;4.99;68.13
17615;BME280;8926;49.720;6.576;2023-02-10T11:47:23;101948.34;;;5.00;68.31
17615;BME280;8926;49.720;6.576;2023-02-10T11:49:48;101950.09;;;5.01;67.61
17615;BME280;8926;49.720;6.576;2023-02-10T11:52:18;101938.88;;;5.06;67.73
17615;BME280;8926;49.720;6.576;2023-02-10T11:54:46;101944.06;;;5.14;68.28
17615;BME280;8926;49.720;6.576;2023-02-10T12:08:24;101943.19;;;5.50;66.94
17615;BME280;8926;49.720;6.576;2023-02-10T12:10:57;101939.75;;;5.56;66.91
17615;BME280;8926;49.720;6.576;2023-02-10T12:16:16;101941.44;;;5.72;67.18
17615;BME280;8926;49.720;6.576;2023-02-10T12:19:08;101931.94;;;5.75;66.26
17615;BME280;8926;49.720;6.576;2023-02-10T12:24:33;101929.34;;;5.77;67.32
17615;BME280;8926;49.720;6.576;2023-02-10T12:27:10;101929.34;;;5.77;66.59
17615;BME280;8926;49.720;6.576;2023-02-10T12:29:51;101921.53;;;5.82;67.05
17615;BME280;8926;49.720;6.576;2023-02-10T12:32:36;101925.00;;;5.82;66.91
17615;BME280;8926;49.720;6.576;2023-02-10T12:35:16;101922.41;;;5.85;66.54
17615;BME280;8926;49.720;6.576;2023-02-10T12:38:00;101924.13;;;5.83;67.47
17615;BME280;8926;49.720;6.576;2023-02-10T12:43:41;101923.25;;;5.98;66.50
17615;BME280;8926;49.720;6.576;2023-02-10T12:54:21;101927.56;;;6.00;67.62
17615;BME280;8926;49.720;6.576;2023-02-10T12:56:55;101921.53;;;5.98;67.62
17615;BME280;8926;49.720;6.576;2023-02-10T12:59:34;101925.84;;;6.02;67.21
17615;BME280;8926;49.720;6.576;2023-02-10T13:02:11;101918.06;;;5.99;66.97
17615;BME280;8926;49.720;6.576;2023-02-10T13:04:43;101915.47;;;6.02;67.71
17615;BME280;8926;49.720;6.576;2023-02-10T13:07:31;101913.72;;;6.13;66.69
17615;BME280;8926;49.720;6.576;2023-02-10T13:12:58;101911.97;;;6.22;67.78
17615;BME280;8926;49.720;6.576;2023-02-10T13:15:29;101913.63;;;6.29;67.49
17615;BME280;8926;49.720;6.576;2023-02-10T13:17:58;101904.09;;;6.35;66.71
17615;BME280;8926;49.720;6.576;2023-02-10T13:20:26;101899.78;;;6.36;66.88
17615;BME280;8926;49.720;6.576;2023-02-10T13:26:13;101889.34;;;6.48;66.64
17615;BME280;8926;49.720;6.576;2023-02-10T13:32:14;101887.56;;;6.53;67.02
17615;BME280;8926;49.720;6.576;2023-02-10T13:34:55;101881.44;;;6.62;66.65
17615;BME280;8926;49.720;6.576;2023-02-10T13:37:38;101881.44;;;6.62;66.77
17615;BME280;8926;49.720;6.576;2023-02-10T13:40:13;101882.31;;;6.62;67.07
17615;BME280;8926;49.720;6.576;2023-02-10T13:42:47;101883.19;;;6.63;66.51
17615;BME280;8926;49.720;6.576;2023-02-10T13:45:17;101871.94;;;6.62;66.45
17615;BME280;8926;49.720;6.576;2023-02-10T13:52:55;101856.22;;;6.80;66.62
17615;BME280;8926;49.720;6.576;2023-02-10T13:57:56;101863.91;;;6.94;66.58
17615;BME280;8926;49.720;6.576;2023-02-10T14:00:25;101859.53;;;7.01;66.65
17615;BME280;8926;49.720;6.576;2023-02-10T14:03:32;101854.19;;;7.16;66.00
17615;BME280;8926;49.720;6.576;2023-02-10T14:05:57;101841.22;;;7.13;66.05
17615;BME280;8926;49.720;6.576;2023-02-10T14:08:40;101835.13;;;7.17;65.79
17615;BME280;8926;49.720;6.576;2023-02-10T14:13:42;101839.53;;;7.07;66.52
17615;BME280;8926;49.720;6.576;2023-02-10T14:18:40;101833.47;;;7.05;66.39
17615;BME280;8926;49.720;6.576;2023-02-10T14:21:13;101837.03;;;6.97;66.80
17615;BME280;8926;49.720;6.576;2023-02-10T14:23:42;101831.84;;;6.97;66.65
17615;BME280;8926;49.720;6.576;2023-02-10T14:26:34;101826.56;;;7.03;66.24
17615;BME280;8926;49.720;6.576;2023-02-10T14:29:00;101831.78;;;7.03;66.39
17615;BME280;8926;49.720;6.576;2023-02-10T14:31:29;101823.94;;;7.09;66.67
17615;BME280;8926;49.720;6.576;2023-02-10T14:33:59;101830.03;;;7.02;66.99
17615;BME280;8926;49.720;6.576;2023-02-10T14:36:26;101828.38;;;6.98;66.92
17615;BME280;8926;49.720;6.576;2023-02-10T14:38:56;101818.03;;;6.93;67.43
17615;BME280;8926;49.720;6.576;2023-02-10T14:41:22;101819.78;;;6.90;67.20
17615;BME280;8926;49.720;6.576;2023-02-10T14:43:49;101822.41;;;6.87;67.42